createdAt,value
2023-02-06T00:01:42.774Z,-2.13
2023-02-06T00:04:10.798Z,-2.32
2023-02-06T00:06:38.714Z,-2.20
2023-02-06T00:09:07.066Z,-2.24
2023-02-06T00:11:35.122Z,-2.38
2023-02-06T00:14:03.337Z,-2.44
2023-02-06T00:16:34.236Z,-2.29
2023-02-06T00:19:02.572Z,-2.29
2023-02-06T00:21:31.125Z,-2.52
2023-02-06T00:24:01.134Z,-2.65
2023-02-06T00:26:31.226Z,-2.28
2023-02-06T00:28:59.123Z,-2.41
2023-02-06T00:31:27.019Z,-2.34
2023-02-06T00:33:55.039Z,-2.33
2023-02-06T00:36:22.959Z,-2.40
2023-02-06T00:38:52.624Z,-2.43
2023-02-06T00:41:21.636Z,-2.42
2023-02-06T00:43:52.137Z,-2.58
2023-02-06T00:46:20.710Z,-2.58
2023-02-06T00:48:48.567Z,-2.73
2023-02-06T00:51:16.407Z,-2.81
2023-02-06T00:53:44.469Z,-2.65
2023-02-06T00:56:12.370Z,-2.52
2023-02-06T00:58:40.210Z,-2.73
2023-02-06T01:01:08.340Z,-2.65
2023-02-06T01:03:36.176Z,-2.88
2023-02-06T01:06:04.071Z,-2.66
2023-02-06T01:08:32.029Z,-2.37
2023-02-06T01:11:00.657Z,-2.71
2023-02-06T01:13:28.717Z,-2.72
2023-02-06T01:15:56.622Z,-2.74
2023-02-06T01:18:24.550Z,-2.99
2023-02-06T01:20:52.350Z,-2.92
2023-02-06T01:23:20.221Z,-2.73
2023-02-06T01:25:48.058Z,-2.60
2023-02-06T01:28:17.499Z,-2.70
2023-02-06T01:30:45.628Z,-2.55
2023-02-06T01:33:13.478Z,-2.92
2023-02-06T01:35:41.301Z,-2.69
2023-02-06T01:38:09.234Z,-2.81
2023-02-06T01:40:37.062Z,-2.82
2023-02-06T01:43:16.008Z,-2.61
2023-02-06T01:45:46.061Z,-2.97
2023-02-06T01:48:19.311Z,-2.99
2023-02-06T01:50:54.288Z,-3.13
2023-02-06T01:53:24.298Z,-2.86
2023-02-06T01:55:55.158Z,-2.97
2023-02-06T01:58:32.522Z,-3.00
2023-02-06T02:01:02.020Z,-3.12
2023-02-06T02:03:32.537Z,-3.10
2023-02-06T02:06:07.026Z,-3.18
2023-02-06T02:08:40.854Z,-3.18
2023-02-06T02:11:12.559Z,-3.24
2023-02-06T02:13:40.672Z,-3.14
2023-02-06T02:16:46.402Z,-3.20
2023-02-06T02:19:51.553Z,-3.23
2023-02-06T02:22:50.163Z,-3.31
2023-02-06T02:25:55.419Z,-3.05
2023-02-06T02:28:29.247Z,-3.30
2023-02-06T02:31:09.659Z,-3.24
2023-02-06T02:33:49.634Z,-3.25
2023-02-06T02:36:42.513Z,-3.37
2023-02-06T02:39:44.476Z,-3.40
2023-02-06T02:42:22.851Z,-3.25
2023-02-06T02:44:57.415Z,-3.40
2023-02-06T02:47:30.822Z,-3.49
2023-02-06T02:50:00.950Z,-3.33
2023-02-06T02:52:29.158Z,-3.68
2023-02-06T02:54:56.992Z,-3.44
2023-02-06T02:57:29.271Z,-3.50
2023-02-06T03:00:00.069Z,-3.50
2023-02-06T03:02:39.277Z,-3.64
2023-02-06T03:05:12.167Z,-3.82
2023-02-06T03:08:23.022Z,-3.61
2023-02-06T03:11:16.316Z,-3.70
2023-02-06T03:14:06.076Z,-3.49
2023-02-06T03:16:42.635Z,-3.60
2023-02-06T03:19:24.553Z,-3.54
2023-02-06T03:21:52.380Z,-3.80
2023-02-06T03:24:26.623Z,-3.84
2023-02-06T03:27:02.197Z,-3.75
2023-02-06T03:29:34.291Z,-3.79
2023-02-06T03:32:16.566Z,-3.78
2023-02-06T03:34:56.037Z,-3.85
2023-02-06T03:37:25.879Z,-3.75
2023-02-06T03:39:55.472Z,-3.85
2023-02-06T03:42:25.111Z,-3.74
2023-02-06T03:45:08.218Z,-3.77
2023-02-06T03:47:38.727Z,-3.99
2023-02-06T03:50:09.901Z,-4.03
2023-02-06T03:52:43.041Z,-3.87
2023-02-06T03:55:15.212Z,-3.81
2023-02-06T03:57:47.963Z,-3.89
2023-02-06T04:00:16.438Z,-3.67
2023-02-06T04:02:47.595Z,-3.80
2023-02-06T04:05:17.374Z,-3.77
2023-02-06T04:07:45.321Z,-3.88
2023-02-06T04:10:13.217Z,-3.95
2023-02-06T04:12:41.287Z,-4.03
2023-02-06T04:15:09.379Z,-4.02
2023-02-06T04:17:53.707Z,-4.05
2023-02-06T04:20:26.705Z,-3.89
2023-02-06T04:22:54.505Z,-3.96
2023-02-06T04:25:22.374Z,-3.84
2023-02-06T04:27:50.353Z,-3.95
2023-02-06T04:30:18.779Z,-4.15
2023-02-06T04:32:46.818Z,-4.04
2023-02-06T04:35:14.659Z,-4.14
2023-02-06T04:37:42.460Z,-4.13
2023-02-06T04:40:11.044Z,-4.04
2023-02-06T04:42:38.966Z,-4.12
2023-02-06T04:45:07.324Z,-4.13
2023-02-06T04:47:35.219Z,-4.11
2023-02-06T04:50:04.149Z,-4.07
2023-02-06T04:52:32.046Z,-4.00
2023-02-06T04:54:59.942Z,-3.97
2023-02-06T04:57:27.960Z,-3.89
2023-02-06T04:59:55.781Z,-4.00
2023-02-06T05:02:23.735Z,-4.11
2023-02-06T05:04:51.579Z,-3.85
2023-02-06T05:07:19.480Z,-4.02
2023-02-06T05:09:47.365Z,-4.01
2023-02-06T05:12:15.226Z,-4.04
2023-02-06T05:14:43.052Z,-3.96
2023-02-06T05:17:10.946Z,-4.03
2023-02-06T05:19:38.822Z,-3.89
2023-02-06T05:22:06.782Z,-4.06
2023-02-06T05:24:34.662Z,-4.16
2023-02-06T05:27:02.465Z,-4.22
2023-02-06T05:29:30.384Z,-4.07
2023-02-06T05:31:58.462Z,-4.20
2023-02-06T05:34:26.470Z,-4.15
2023-02-06T05:36:54.370Z,-4.02
2023-02-06T05:39:22.406Z,-4.22
2023-02-06T05:41:50.305Z,-4.07
2023-02-06T05:44:18.186Z,-4.12
2023-02-06T05:46:48.418Z,-3.80
2023-02-06T05:49:16.618Z,-3.62
2023-02-06T05:51:44.576Z,-3.75
2023-02-06T05:54:13.181Z,-3.97
2023-02-06T05:56:41.251Z,-4.05
2023-02-06T05:59:09.273Z,-3.78
2023-02-06T06:01:37.181Z,-3.99
2023-02-06T06:04:05.338Z,-4.07
2023-02-06T06:06:33.320Z,-4.14
2023-02-06T06:09:01.402Z,-4.12
2023-02-06T06:11:30.252Z,-4.08
2023-02-06T06:13:58.126Z,-4.20
2023-02-06T06:16:26.080Z,-4.00
2023-02-06T06:18:53.984Z,-4.03
2023-02-06T06:21:23.083Z,-4.16
2023-02-06T06:23:51.036Z,-4.18
2023-02-06T06:26:19.924Z,-4.07
2023-02-06T06:28:48.260Z,-4.21
2023-02-06T06:31:16.500Z,-4.11
2023-02-06T06:33:44.714Z,-4.10
2023-02-06T06:36:14.595Z,-4.14
2023-02-06T06:38:42.629Z,-3.95
2023-02-06T06:41:10.676Z,-3.95
2023-02-06T06:43:39.434Z,-3.84
2023-02-06T06:46:10.742Z,-3.74
2023-02-06T06:48:38.666Z,-4.14
2023-02-06T06:51:06.821Z,-4.11
2023-02-06T06:53:34.842Z,-4.14
2023-02-06T06:56:07.932Z,-3.95
2023-02-06T06:58:36.650Z,-4.09
2023-02-06T07:01:05.187Z,-4.08
2023-02-06T07:03:33.070Z,-3.99
2023-02-06T07:06:01.174Z,-3.89
2023-02-06T07:08:30.101Z,-3.94
2023-02-06T07:10:58.279Z,-3.99
2023-02-06T07:13:26.200Z,-3.99
2023-02-06T07:15:54.090Z,-3.79
2023-02-06T07:18:22.221Z,-3.94
2023-02-06T07:20:51.416Z,-3.96
2023-02-06T07:23:19.315Z,-3.74
2023-02-06T07:25:47.186Z,-3.87
2023-02-06T07:28:15.265Z,-3.79
2023-02-06T07:30:43.254Z,-3.81
2023-02-06T07:33:11.200Z,-3.59
2023-02-06T07:35:39.217Z,-3.69
2023-02-06T07:38:07.103Z,-3.61
2023-02-06T07:40:44.719Z,-3.47
2023-02-06T07:43:13.847Z,-3.52
2023-02-06T07:45:41.963Z,-3.37
2023-02-06T07:48:09.921Z,-3.43
2023-02-06T07:50:38.094Z,-3.49
2023-02-06T07:53:06.247Z,-3.52
2023-02-06T07:55:37.003Z,-3.64
2023-02-06T07:58:05.057Z,-3.43
2023-02-06T08:00:33.169Z,-3.24
2023-02-06T08:03:01.037Z,-3.06
2023-02-06T08:05:28.888Z,-3.12
2023-02-06T08:07:56.916Z,-3.32
2023-02-06T08:10:25.638Z,-3.24
2023-02-06T08:12:53.574Z,-3.05
2023-02-06T08:15:21.416Z,-2.90
2023-02-06T08:17:49.304Z,-2.90
2023-02-06T08:20:17.321Z,-2.91
2023-02-06T08:22:45.190Z,-2.76
2023-02-06T08:25:13.117Z,-2.74
2023-02-06T08:27:41.165Z,-2.61
2023-02-06T08:30:09.564Z,-2.53
2023-02-06T08:32:37.477Z,-2.46
2023-02-06T08:35:05.859Z,-2.35
2023-02-06T08:37:33.892Z,-2.31
2023-02-06T08:40:01.896Z,-2.21
2023-02-06T08:42:29.796Z,-2.22
2023-02-06T08:44:57.779Z,-2.23
2023-02-06T08:47:25.609Z,-2.15
2023-02-06T08:49:54.656Z,-2.25
2023-02-06T08:52:23.372Z,-2.23
2023-02-06T08:54:52.125Z,-2.33
2023-02-06T08:57:20.349Z,-2.09
2023-02-06T08:59:49.678Z,-2.00
2023-02-06T09:02:17.599Z,-2.00
2023-02-06T09:04:45.613Z,-2.05
2023-02-06T09:07:15.692Z,-1.91
2023-02-06T09:09:44.889Z,-1.58
2023-02-06T09:12:12.746Z,-1.64
2023-02-06T09:14:40.633Z,-1.78
2023-02-06T09:17:08.607Z,-1.65
2023-02-06T09:19:36.532Z,-1.55
2023-02-06T09:22:06.345Z,-1.56
2023-02-06T09:24:35.062Z,-1.55
2023-02-06T09:27:02.937Z,-1.53
2023-02-06T09:29:34.170Z,-1.40
2023-02-06T09:32:02.348Z,-1.32
2023-02-06T09:34:30.342Z,-1.61
2023-02-06T09:36:58.497Z,-1.37
2023-02-06T09:39:26.790Z,-1.34
2023-02-06T09:42:19.633Z,-1.16
2023-02-06T09:44:51.479Z,-1.04
2023-02-06T09:47:32.355Z,-1.03
2023-02-06T09:50:40.181Z,-1.28
2023-02-06T09:53:16.912Z,-1.15
2023-02-06T09:55:51.739Z,-1.05
2023-02-06T09:58:47.283Z,-1.00
2023-02-06T10:01:41.171Z,-0.94
2023-02-06T10:04:42.165Z,-0.93
2023-02-06T10:07:30.574Z,-0.95
2023-02-06T10:10:18.159Z,-1.14
2023-02-06T10:13:02.308Z,-1.07
2023-02-06T10:15:46.250Z,-1.02
2023-02-06T10:18:39.666Z,-0.93
2023-02-06T10:21:32.336Z,-1.00
2023-02-06T10:24:10.751Z,-0.90
2023-02-06T10:26:40.455Z,-1.00
2023-02-06T10:29:18.347Z,-0.98
2023-02-06T10:31:57.662Z,-0.90
2023-02-06T10:34:47.243Z,-0.88
2023-02-06T10:37:36.829Z,-0.66
2023-02-06T10:40:36.103Z,-1.06
2023-02-06T10:43:22.369Z,-0.67
2023-02-06T10:46:01.861Z,-0.79
2023-02-06T10:48:54.352Z,-0.79
2023-02-06T10:51:32.027Z,-0.59
2023-02-06T10:54:14.890Z,-0.72
2023-02-06T10:56:45.079Z,-0.69
2023-02-06T10:59:35.363Z,-0.65
2023-02-06T11:02:30.769Z,-0.29
2023-02-06T11:05:25.338Z,-0.39
2023-02-06T11:07:58.478Z,-0.34
2023-02-06T11:10:26.713Z,-0.09
2023-02-06T11:13:22.926Z,0.04
2023-02-06T11:16:01.724Z,-0.01
2023-02-06T11:18:36.437Z,0.15
2023-02-06T11:21:05.078Z,0.04
2023-02-06T11:23:36.550Z,0.32
2023-02-06T11:26:12.959Z,0.22
2023-02-06T11:28:54.279Z,0.26
2023-02-06T11:31:40.942Z,0.29
2023-02-06T11:34:37.471Z,0.45
2023-02-06T11:37:27.440Z,0.04
2023-02-06T11:40:13.978Z,0.30
2023-02-06T11:42:41.971Z,0.15
2023-02-06T11:45:29.162Z,0.28
2023-02-06T11:47:57.468Z,0.23
2023-02-06T11:50:35.326Z,0.32
2023-02-06T11:53:18.086Z,0.73
2023-02-06T11:55:47.017Z,0.78
2023-02-06T11:58:14.802Z,1.05
2023-02-06T12:01:01.010Z,1.42
2023-02-06T12:03:33.616Z,1.21
2023-02-06T12:06:18.134Z,1.26
2023-02-06T12:08:48.965Z,1.32
2023-02-06T12:11:37.217Z,1.21
2023-02-06T12:14:11.256Z,1.72
2023-02-06T12:16:43.398Z,1.79
2023-02-06T12:19:19.024Z,2.00
2023-02-06T12:21:54.817Z,1.91
2023-02-06T12:24:22.677Z,2.14
2023-02-06T12:26:54.834Z,2.01
2023-02-06T12:29:33.570Z,1.48
2023-02-06T12:32:09.928Z,1.42
2023-02-06T12:34:52.022Z,1.76
2023-02-06T12:37:37.814Z,1.64
2023-02-06T12:40:24.693Z,1.48
2023-02-06T12:43:04.021Z,1.72
2023-02-06T12:45:50.432Z,1.76
2023-02-06T12:48:41.496Z,1.78
2023-02-06T12:51:45.577Z,1.71
2023-02-06T12:54:23.576Z,1.71
2023-02-06T12:57:05.940Z,1.70
2023-02-06T12:59:57.178Z,1.70
2023-02-06T13:02:50.446Z,1.73
2023-02-06T13:05:30.187Z,1.73
2023-02-06T13:08:06.555Z,1.46
2023-02-06T13:10:36.801Z,1.48
2023-02-06T13:13:05.296Z,1.28
2023-02-06T13:15:40.514Z,1.19
2023-02-06T13:18:50.487Z,1.22
2023-02-06T13:21:32.233Z,1.11
2023-02-06T13:24:03.104Z,1.17
2023-02-06T13:26:43.115Z,1.20
2023-02-06T13:29:41.512Z,1.28
2023-02-06T13:32:12.560Z,1.32
2023-02-06T13:34:43.246Z,1.30
2023-02-06T13:37:30.062Z,1.36
2023-02-06T13:40:21.024Z,1.36
2023-02-06T13:43:00.440Z,1.21
2023-02-06T13:45:40.930Z,1.44
2023-02-06T13:48:08.965Z,1.41
2023-02-06T13:50:51.991Z,1.31
2023-02-06T13:53:41.018Z,1.32
2023-02-06T13:56:20.410Z,1.62
2023-02-06T13:58:53.800Z,1.47
2023-02-06T14:01:31.615Z,1.51
2023-02-06T14:04:00.105Z,1.42
2023-02-06T14:06:44.295Z,1.40
2023-02-06T14:09:30.580Z,1.20
2023-02-06T14:12:35.302Z,1.34
2023-02-06T14:15:41.073Z,1.21
2023-02-06T14:18:39.801Z,1.22
2023-02-06T14:21:32.424Z,1.35
2023-02-06T14:24:30.147Z,1.28
2023-02-06T14:27:26.311Z,1.33
2023-02-06T14:30:03.010Z,1.40
2023-02-06T14:32:39.985Z,1.57
2023-02-06T14:35:32.051Z,1.37
2023-02-06T14:38:46.426Z,1.35
2023-02-06T14:41:15.308Z,1.35
2023-02-06T14:43:46.244Z,1.45
2023-02-06T14:46:17.269Z,1.32
2023-02-06T14:48:52.188Z,1.26
2023-02-06T14:51:26.640Z,1.13
2023-02-06T14:54:03.992Z,1.15
2023-02-06T14:56:37.658Z,1.17
2023-02-06T14:59:16.872Z,0.93
2023-02-06T15:01:48.152Z,0.94
2023-02-06T15:04:17.138Z,0.86
2023-02-06T15:06:51.395Z,0.74
2023-02-06T15:09:54.645Z,0.68
2023-02-06T15:12:26.613Z,0.58
2023-02-06T15:15:15.479Z,0.62
2023-02-06T15:17:43.905Z,0.50
2023-02-06T15:20:20.789Z,0.46
2023-02-06T15:22:49.038Z,0.48
2023-02-06T15:25:40.656Z,0.39
2023-02-06T15:28:18.756Z,0.27
2023-02-06T15:30:47.285Z,0.42
2023-02-06T15:33:22.807Z,0.76
2023-02-06T15:35:53.693Z,1.43
2023-02-06T15:38:24.179Z,0.54
2023-02-06T15:41:00.437Z,0.21
2023-02-06T15:43:29.181Z,0.16
2023-02-06T15:46:00.210Z,0.18
2023-02-06T15:48:43.722Z,0.09
2023-02-06T15:51:49.222Z,0.05
2023-02-06T15:54:23.372Z,0.05
2023-02-06T15:56:54.812Z,0.05
2023-02-06T15:59:25.673Z,0.05
2023-02-06T16:01:57.086Z,-0.04
2023-02-06T16:04:39.752Z,-0.09
2023-02-06T16:07:21.799Z,-0.14
2023-02-06T16:09:54.828Z,-0.18
2023-02-06T16:12:23.061Z,-0.25
2023-02-06T16:14:59.548Z,-0.34
2023-02-06T16:17:34.104Z,-0.28
2023-02-06T16:20:05.484Z,-0.34
2023-02-06T16:22:38.342Z,-0.40
2023-02-06T16:25:25.955Z,-0.40
2023-02-06T16:27:54.058Z,-0.44
2023-02-06T16:30:34.893Z,-0.53
2023-02-06T16:33:22.121Z,-0.51
2023-02-06T16:35:50.047Z,-0.66
2023-02-06T16:38:18.188Z,-0.79
2023-02-06T16:40:46.318Z,-0.79
2023-02-06T16:43:14.214Z,-0.83
2023-02-06T16:45:42.132Z,-0.72
2023-02-06T16:48:17.228Z,-0.81
2023-02-06T16:50:47.601Z,-0.79
2023-02-06T16:53:22.056Z,-0.74
2023-02-06T16:55:50.635Z,-0.81
2023-02-06T16:58:24.154Z,-0.86
2023-02-06T17:00:52.203Z,-1.00
2023-02-06T17:03:20.097Z,-1.03
2023-02-06T17:05:49.361Z,-0.94
2023-02-06T17:08:19.990Z,-1.00
2023-02-06T17:10:48.553Z,-1.02
2023-02-06T17:13:22.136Z,-0.99
2023-02-06T17:15:53.151Z,-0.86
2023-02-06T17:18:22.979Z,-1.06
2023-02-06T17:20:53.002Z,-1.17
2023-02-06T17:23:21.098Z,-1.21
2023-02-06T17:25:50.966Z,-1.10
2023-02-06T17:28:19.968Z,-1.02
2023-02-06T17:30:49.832Z,-1.11
2023-02-06T17:33:17.841Z,-0.90
2023-02-06T17:35:46.797Z,-0.84
2023-02-06T17:38:14.918Z,-1.08
2023-02-06T17:40:42.980Z,-0.99
2023-02-06T17:43:10.872Z,-0.92
2023-02-06T17:45:39.720Z,-0.95
2023-02-06T17:48:08.318Z,-1.00
2023-02-06T17:50:38.039Z,-0.59
2023-02-06T17:53:07.144Z,-1.10
2023-02-06T17:55:35.916Z,-1.12
2023-02-06T17:58:04.756Z,-1.23
2023-02-06T18:00:33.018Z,-1.18
2023-02-06T18:03:01.130Z,-1.09
2023-02-06T18:05:29.112Z,-1.14
2023-02-06T18:07:56.974Z,-1.06
2023-02-06T18:10:25.637Z,-1.00
2023-02-06T18:12:53.656Z,-1.22
2023-02-06T18:15:21.571Z,-1.21
2023-02-06T18:17:49.602Z,-1.08
2023-02-06T18:20:17.804Z,-1.17
2023-02-06T18:22:46.690Z,-1.13
2023-02-06T18:25:15.039Z,-1.15
2023-02-06T18:27:45.671Z,-1.37
2023-02-06T18:30:15.431Z,-1.28
2023-02-06T18:32:44.085Z,-1.38
2023-02-06T18:35:12.238Z,-1.30
2023-02-06T18:37:40.221Z,-1.19
2023-02-06T18:40:08.608Z,-1.25
2023-02-06T18:42:51.839Z,-1.36
2023-02-06T18:45:21.701Z,-1.38
2023-02-06T18:47:51.471Z,-1.33
2023-02-06T18:50:21.978Z,-1.45
2023-02-06T18:52:50.624Z,-1.26
2023-02-06T18:55:19.608Z,-1.35
2023-02-06T18:57:47.596Z,-1.34
2023-02-06T19:00:19.136Z,-1.54
2023-02-06T19:02:47.324Z,-1.44
2023-02-06T19:05:16.020Z,-1.60
2023-02-06T19:07:48.371Z,-1.61
2023-02-06T19:10:16.888Z,-1.59
2023-02-06T19:12:45.096Z,-1.62
2023-02-06T19:15:14.926Z,-1.60
2023-02-06T19:17:42.961Z,-1.59
2023-02-06T19:20:11.725Z,-1.48
2023-02-06T19:22:39.646Z,-1.50
2023-02-06T19:25:11.372Z,-1.64
2023-02-06T19:27:40.082Z,-1.58
2023-02-06T19:30:08.503Z,-1.50
2023-02-06T19:32:36.569Z,-1.67
2023-02-06T19:35:04.856Z,-1.56
2023-02-06T19:37:32.811Z,-1.56
2023-02-06T19:40:00.736Z,-1.77
2023-02-06T19:42:28.620Z,-1.78
2023-02-06T19:44:56.454Z,-1.70
2023-02-06T19:47:24.446Z,-1.85
2023-02-06T19:49:52.869Z,-1.80
2023-02-06T19:52:21.123Z,-1.80
2023-02-06T19:54:49.023Z,-1.78
2023-02-06T19:57:19.337Z,-1.83
2023-02-06T19:59:47.257Z,-1.83
2023-02-06T20:02:15.764Z,-1.80
2023-02-06T20:04:45.248Z,-1.78
2023-02-06T20:07:13.310Z,-1.79
2023-02-06T20:09:42.311Z,-1.88
2023-02-06T20:12:12.423Z,-1.69
2023-02-06T20:14:40.323Z,-1.74
2023-02-06T20:17:08.533Z,-1.76
2023-02-06T20:19:36.560Z,-1.80
2023-02-06T20:22:05.259Z,-1.92
2023-02-06T20:24:33.285Z,-1.96
2023-02-06T20:27:07.227Z,-1.89
2023-02-06T20:29:38.351Z,-1.81
2023-02-06T20:32:07.254Z,-1.92
2023-02-06T20:34:35.611Z,-1.93
2023-02-06T20:37:04.390Z,-1.87
2023-02-06T20:39:32.760Z,-2.02
2023-02-06T20:42:00.873Z,-2.14
2023-02-06T20:44:29.724Z,-2.07
2023-02-06T20:46:57.679Z,-1.92
2023-02-06T20:49:27.586Z,-2.03
2023-02-06T20:51:55.642Z,-2.24
2023-02-06T20:54:25.916Z,-2.28
2023-02-06T20:56:54.036Z,-2.20
2023-02-06T20:59:22.685Z,-2.43
2023-02-06T21:01:50.626Z,-2.31
2023-02-06T21:04:19.400Z,-2.04
2023-02-06T21:06:50.376Z,-2.10
2023-02-06T21:09:19.290Z,-2.20
2023-02-06T21:11:48.782Z,-2.27
2023-02-06T21:14:17.665Z,-2.27
2023-02-06T21:16:45.938Z,-2.28
2023-02-06T21:19:16.809Z,-2.31
2023-02-06T21:21:46.340Z,-2.38
2023-02-06T21:24:15.904Z,-2.37
2023-02-06T21:26:43.951Z,-2.40
2023-02-06T21:29:14.065Z,-2.42
2023-02-06T21:31:42.844Z,-2.37
2023-02-06T21:34:18.010Z,-2.47
2023-02-06T21:36:46.120Z,-2.49
2023-02-06T21:39:21.881Z,-2.52
2023-02-06T21:41:51.941Z,-2.50
2023-02-06T21:44:21.534Z,-2.58
2023-02-06T21:46:50.047Z,-2.47
2023-02-06T21:49:18.674Z,-2.47
2023-02-06T21:51:46.610Z,-2.59
2023-02-06T21:54:14.627Z,-2.50
2023-02-06T21:56:42.922Z,-2.38
2023-02-06T21:59:12.108Z,-2.43
2023-02-06T22:01:41.254Z,-2.49
2023-02-06T22:04:11.339Z,-2.53
2023-02-06T22:06:40.733Z,-2.62
2023-02-06T22:09:15.193Z,-2.60
2023-02-06T22:11:45.312Z,-2.56
2023-02-06T22:14:15.980Z,-2.50
2023-02-06T22:16:46.896Z,-2.50
2023-02-06T22:19:16.152Z,-2.67
2023-02-06T22:21:44.817Z,-2.59
2023-02-06T22:24:12.783Z,-2.71
2023-02-06T22:26:41.503Z,-2.61
2023-02-06T22:29:15.238Z,-2.75
2023-02-06T22:31:44.129Z,-2.73
2023-02-06T22:34:20.569Z,-2.61
2023-02-06T22:36:50.934Z,-2.63
2023-02-06T22:39:19.604Z,-2.65
2023-02-06T22:41:47.778Z,-2.74
2023-02-06T22:44:17.562Z,-2.66
2023-02-06T22:46:48.383Z,-2.68
2023-02-06T22:49:16.363Z,-2.63
2023-02-06T22:51:44.908Z,-2.68
2023-02-06T22:54:14.291Z,-2.76
2023-02-06T22:56:43.603Z,-2.63
2023-02-06T22:59:16.964Z,-2.59
2023-02-06T23:01:54.381Z,-2.50
2023-02-06T23:04:25.111Z,-2.70
2023-02-06T23:06:54.158Z,-2.67
2023-02-06T23:09:25.249Z,-2.69
2023-02-06T23:11:54.157Z,-2.74
2023-02-06T23:14:22.194Z,-2.84
2023-02-06T23:16:50.866Z,-2.65
2023-02-06T23:19:19.580Z,-2.72
2023-02-06T23:21:49.238Z,-2.66
2023-02-06T23:24:17.644Z,-2.59
2023-02-06T23:26:49.174Z,-2.63
2023-02-06T23:29:19.203Z,-2.59
2023-02-06T23:31:48.121Z,-2.67
2023-02-06T23:34:17.581Z,-2.53
2023-02-06T23:36:46.340Z,-2.67
2023-02-06T23:39:14.272Z,-2.64
2023-02-06T23:41:42.281Z,-2.74
2023-02-06T23:44:10.834Z,-2.82
2023-02-06T23:46:39.854Z,-2.42
2023-02-06T23:49:08.780Z,-2.63
2023-02-06T23:51:38.198Z,-2.60
2023-02-06T23:54:07.643Z,-2.64
2023-02-06T23:56:36.440Z,-2.60
2023-02-06T23:59:05.683Z,-2.43
